Time;durP1;ratioP1;P1;durP2;ratioP2;P2;SDS_P1;SDS_P2;PMS_P1;PMS_P2;Temp;Humidity;BMP_temperature;BMP_pressure;BME280_temperature;BME280_humidity;BME280_pressure;Samples;Min_cycle;Max_cycle;Signal;HPM_P1;HPM_P2
2023/12/08 00:00:12;;;;;;;;;64.50;51.50;;;;;2.14;100.00;99877.66;6312303;20;2861146;-48
2023/12/08 00:02:41;;;;;;;;;78.33;55.67;;;;;2.23;100.00;99876.56;6279495;20;3639872;-51
2023/12/08 00:05:11;;;;;;;;;60.33;44.33;;;;;2.31;100.00;99874.59;6312547;20;3641034;-50
2023/12/08 00:07:40;;;;;;;;;71.00;55.50;;;;;2.23;100.00;99872.13;6312254;20;2874279;-51
2023/12/08 00:10:10;;;;;;;;;82.00;60.67;;;;;1.57;100.00;99870.16;6278633;20;3631519;-50
2023/12/08 00:12:40;;;;;;;;;71.00;57.67;;;;;1.33;100.00;99861.81;6314245;20;2883663;-49
2023/12/08 00:15:09;;;;;;;;;69.00;54.50;;;;;1.31;100.00;99871.56;6313015;20;2874170;-48
2023/12/08 00:17:39;;;;;;;;;72.33;55.33;;;;;1.34;100.00;99871.50;6282857;20;2879487;-50
2023/12/08 00:20:10;;;;;;;;;68.67;54.33;;;;;1.27;100.00;99869.91;6311128;20;2877407;-50
2023/12/08 00:22:39;;;;;;;;;68.50;53.00;;;;;1.59;100.00;99878.94;6315526;20;2870080;-50
2023/12/08 00:25:09;;;;;;;;;70.00;55.33;;;;;1.41;100.00;99875.75;6278503;20;2877487;-48
2023/12/08 00:27:37;;;;;;;;;72.00;57.00;;;;;1.61;100.00;99877.13;6314640;20;2574211;-49
2023/12/08 00:30:07;;;;;;;;;67.50;55.00;;;;;1.65;100.00;99884.06;6281702;20;2854493;-51
2023/12/08 00:32:36;;;;;;;;;67.50;54.00;;;;;2.09;100.00;99884.84;6284176;20;2866983;-48
2023/12/08 00:35:08;;;;;;;;;70.00;53.33;;;;;2.30;100.00;99892.25;6280773;20;2881662;-49
2023/12/08 00:37:38;;;;;;;;;74.00;53.67;;;;;2.24;100.00;99895.06;6314928;20;3635739;-49
2023/12/08 00:40:08;;;;;;;;;68.50;50.50;;;;;2.35;100.00;99905.41;6312151;20;2873260;-50
2023/12/08 00:42:36;;;;;;;;;67.00;52.00;;;;;2.26;100.00;99898.53;6277041;20;2499275;-49
2023/12/08 00:45:06;;;;;;;;;70.67;54.00;;;;;2.14;100.00;99898.84;6277559;20;3624235;-50
2023/12/08 00:47:36;;;;;;;;;80.00;60.33;;;;;2.00;100.00;99901.78;6314124;20;3635724;-50
2023/12/08 00:50:07;;;;;;;;;74.00;53.33;;;;;2.06;100.00;99895.50;6312987;20;2870087;-47
2023/12/08 00:52:37;;;;;;;;;75.33;58.67;;;;;1.96;100.00;99901.00;6312066;20;2881650;-52
2023/12/08 00:55:07;;;;;;;;;79.33;59.67;;;;;2.14;100.00;99906.78;6313854;20;3631604;-51
2023/12/08 00:57:37;;;;;;;;;83.33;60.33;;;;;1.89;100.00;99904.69;6313401;20;3656549;-47
2023/12/08 01:00:07;;;;;;;;;77.00;60.50;;;;;2.20;100.00;99898.69;6312933;20;2866075;-47
2023/12/08 01:02:37;;;;;;;;;77.00;54.67;;;;;2.35;100.00;99900.97;6279917;20;3648283;-52
2023/12/08 01:05:07;;;;;;;;;80.67;58.33;;;;;2.31;100.00;99907.25;6312193;20;3650291;-49
2023/12/08 01:07:37;;;;;;;;;77.00;58.33;;;;;2.03;100.00;99908.78;6313250;20;3650335;-48
2023/12/08 01:10:07;;;;;;;;;71.50;60.50;;;;;2.20;100.00;99899.56;6311505;20;2872473;-49
2023/12/08 01:12:36;;;;;;;;;74.67;58.00;;;;;2.22;100.00;99902.19;6279724;20;2877567;-52
2023/12/08 01:15:07;;;;;;;;;81.67;61.00;;;;;2.19;100.00;99904.91;6310442;20;3643095;-49
2023/12/08 01:17:37;;;;;;;;;80.33;60.00;;;;;1.90;100.00;99903.81;6312554;20;2893115;-47
2023/12/08 01:20:09;;;;;;;;;76.33;59.00;;;;;2.08;100.00;99907.81;6308915;20;2884835;-51
2023/12/08 01:22:38;;;;;;;;;76.00;57.50;;;;;2.17;100.00;99910.22;6311409;20;2878463;-51
2023/12/08 01:25:07;;;;;;;;;72.00;58.50;;;;;2.04;100.00;99902.63;6280369;20;2873234;-49
2023/12/08 01:27:37;;;;;;;;;71.00;52.00;;;;;1.81;100.00;99905.78;6281235;20;3635715;-48
2023/12/08 01:30:07;;;;;;;;;68.00;54.00;;;;;2.02;100.00;99910.56;6310101;20;2873232;-47
2023/12/08 01:32:37;;;;;;;;;81.67;57.67;;;;;1.97;100.00;99912.47;6281937;20;3650287;-51
2023/12/08 01:35:07;;;;;;;;;69.50;56.00;;;;;1.96;100.00;99921.31;6312590;20;2876352;-47
2023/12/08 01:37:37;;;;;;;;;81.00;55.33;;;;;1.97;100.00;99912.47;6281068;20;2882709;-47
2023/12/08 01:40:07;;;;;;;;;9.00;0.00;;;;;1.73;100.00;99903.28;6310874;20;3466971;-52
2023/12/08 01:42:37;;;;;;;;;84.67;62.67;;;;;1.72;100.00;99913.03;6312236;20;3659056;-49
2023/12/08 01:45:08;;;;;;;;;82.00;60.33;;;;;1.93;100.00;99911.66;6309434;20;3637806;-50
2023/12/08 01:47:40;;;;;;;;;70.50;56.00;;;;;2.16;100.00;99908.50;6311905;20;2871142;-48
2023/12/08 01:50:12;;;;;;;;;74.00;56.33;;;;;1.90;100.00;99916.19;6279274;20;2875294;-48
2023/12/08 01:52:42;;;;;;;;;72.33;56.33;;;;;2.03;100.00;99920.28;6309685;20;2880562;-50
2023/12/08 01:55:12;;;;;;;;;76.67;60.67;;;;;2.16;100.00;99918.22;6312909;20;3626331;-49
2023/12/08 01:57:43;;;;;;;;;71.50;55.00;;;;;2.06;100.00;99922.84;6312494;20;2879464;-49
2023/12/08 02:00:14;;;;;;;;;82.00;60.33;;;;;2.09;100.00;99919.28;6277278;20;3650253;-48
2023/12/08 02:02:44;;;;;;;;;68.67;52.00;;;;;2.08;100.00;99920.16;6307305;20;2876463;-52
2023/12/08 02:05:16;;;;;;;;;71.50;54.00;;;;;1.97;100.00;99917.75;6310512;20;2870156;-50
2023/12/08 02:07:46;;;;;;;;;66.33;53.00;;;;;1.94;100.00;99908.09;6281929;20;2868012;-50
2023/12/08 02:10:16;;;;;;;;;72.33;55.00;;;;;2.16;100.00;99907.63;6316040;20;2882664;-52
2023/12/08 02:12:45;;;;;;;;;57.00;48.00;;;;;1.97;100.00;99912.47;6314362;20;2497213;-50
2023/12/08 02:15:14;;;;;;;;;71.50;56.50;;;;;1.93;100.00;99902.88;6283719;20;2863802;-48
2023/12/08 02:17:46;;;;;;;;;66.50;51.50;;;;;1.92;100.00;99904.66;6278502;20;2875359;-50
2023/12/08 02:20:16;;;;;;;;;74.67;57.33;;;;;2.05;100.00;99907.00;6276795;20;2879729;-49
2023/12/08 02:22:45;;;;;;;;;72.00;56.50;;;;;1.92;100.00;99902.00;6315314;20;2868028;-50
2023/12/08 02:25:14;;;;;;;;;68.00;56.00;;;;;2.11;100.00;99910.38;6283872;20;2868077;-48
2023/12/08 02:27:44;;;;;;;;;70.33;56.00;;;;;2.20;100.00;99906.63;6283066;20;2872162;-50
2023/12/08 02:30:16;;;;;;;;;68.67;55.67;;;;;1.95;100.00;99906.34;6312319;20;2875325;-47
2023/12/08 02:32:53;;;;;;;;;74.00;55.00;;;;;1.95;100.00;99903.72;6313557;20;2872173;-50
2023/12/08 02:35:24;;;;;;;;;72.00;54.33;;;;;1.88;100.00;99910.91;6281585;20;2884907;-48
2023/12/08 02:37:57;;;;;;;;;75.00;56.33;;;;;1.94;100.00;99900.16;6310913;20;2870258;-49
2023/12/08 02:40:27;;;;;;;;;74.33;55.67;;;;;1.82;100.00;99907.50;6310813;20;2893137;-49
2023/12/08 02:42:55;;;;;;;;;66.00;53.00;;;;;1.83;100.00;99902.19;6307786;20;2500282;-47
2023/12/08 02:45:24;;;;;;;;;70.50;52.50;;;;;1.66;100.00;99902.56;6282682;20;2874331;-49
2023/12/08 02:47:53;;;;;;;;;66.50;49.00;;;;;1.76;100.00;99908.53;6280157;20;2875247;-51
2023/12/08 02:50:23;;;;;;;;;67.00;50.50;;;;;1.97;100.00;99902.75;6275629;20;2877480;-50
2023/12/08 02:52:52;;;;;;;;;71.33;56.00;;;;;2.15;100.00;99908.53;6309328;20;2885908;-49
2023/12/08 02:55:22;;;;;;;;;67.50;52.50;;;;;2.07;100.00;99907.84;6307348;20;2493784;-50
2023/12/08 02:57:50;;;;;;;;;64.50;53.00;;;;;1.71;100.00;99905.09;6274709;20;2500389;-47
2023/12/08 03:00:19;;;;;;;;;66.50;51.50;;;;;1.81;100.00;99905.78;6275363;20;2870076;-50
2023/12/08 03:02:47;;;;;;;;;71.50;54.50;;;;;1.97;100.00;99905.41;6274878;20;2489916;-51
2023/12/08 03:05:16;;;;;;;;;61.00;49.50;;;;;1.87;100.00;99906.53;6279674;20;2867436;-48
2023/12/08 03:07:46;;;;;;;;;72.00;52.67;;;;;1.59;100.00;99910.69;6282566;20;2882901;-47
2023/12/08 03:10:15;;;;;;;;;64.00;48.00;;;;;1.44;100.00;99919.81;6310127;20;2869044;-46
2023/12/08 03:12:46;;;;;;;;;69.33;54.00;;;;;1.78;100.00;99927.88;6313833;20;2880584;-48
2023/12/08 03:15:15;;;;;;;;;73.67;54.33;;;;;2.07;100.00;99932.53;6174000;20;2886807;-49
2023/12/08 03:17:44;;;;;;;;;60.50;48.00;;;;;2.09;100.00;99932.50;6315810;20;2855501;-49
2023/12/08 03:20:14;;;;;;;;;66.00;51.33;;;;;2.02;100.00;99934.41;6282887;20;2877366;-47
2023/12/08 03:22:43;;;;;;;;;61.50;51.00;;;;;2.15;100.00;99938.53;6315339;20;2861736;-50
2023/12/08 03:25:12;;;;;;;;;66.00;52.50;;;;;2.23;100.00;99935.69;6282133;20;2865985;-47
2023/12/08 03:27:40;;;;;;;;;71.50;54.00;;;;;2.01;100.00;99931.81;6280957;20;2498302;-47
2023/12/08 03:30:13;;;;;;;;;69.67;55.33;;;;;1.73;100.00;99929.75;6281479;20;2887928;-49
2023/12/08 03:32:43;;;;;;;;;71.67;58.33;;;;;2.03;100.00;99929.97;6312294;20;2875382;-47
2023/12/08 03:35:12;;;;;;;;;62.50;49.50;;;;;2.24;100.00;99931.25;6313107;20;2866944;-50
2023/12/08 03:37:42;;;;;;;;;74.00;55.33;;;;;2.10;100.00;99934.25;6281367;20;3633642;-49
2023/12/08 03:40:12;;;;;;;;;73.33;56.33;;;;;2.09;100.00;99930.72;6312499;20;2885816;-53
2023/12/08 03:42:41;;;;;;;;;70.00;54.00;;;;;2.09;100.00;99928.06;6311932;20;2879592;-53
2023/12/08 03:45:10;;;;;;;;;65.00;49.50;;;;;2.06;100.00;99935.22;6281779;20;2864938;-48
2023/12/08 03:47:40;;;;;;;;;65.00;47.33;;;;;1.97;100.00;99934.53;6282483;20;2873388;-49
2023/12/08 03:50:09;;;;;;;;;70.50;53.50;;;;;1.79;100.00;99934.06;6313513;20;2878426;-53
2023/12/08 03:52:39;;;;;;;;;66.33;48.67;;;;;1.56;100.00;99931.91;6281240;20;2877381;-49
2023/12/08 03:55:09;;;;;;;;;68.33;50.67;;;;;1.72;100.00;99928.03;6315852;20;2880674;-46
2023/12/08 03:57:38;;;;;;;;;60.50;49.00;;;;;1.61;100.00;99924.75;6314226;20;2854440;-48
2023/12/08 04:00:10;;;;;;;;;66.50;50.50;;;;;1.78;100.00;99929.66;6280531;20;2856587;-51
2023/12/08 04:02:40;;;;;;;;;77.33;55.67;;;;;1.49;100.00;99931.16;6282183;20;3652367;-47
2023/12/08 04:05:11;;;;;;;;;74.00;54.67;;;;;2.07;100.00;99929.03;6315115;20;2891016;-49
2023/12/08 04:07:41;;;;;;;;;73.67;55.67;;;;;1.98;100.00;99930.97;6310259;20;2887932;-48
2023/12/08 04:10:10;;;;;;;;;66.33;51.67;;;;;2.06;100.00;99928.16;6311014;20;2871260;-51
2023/12/08 04:12:40;;;;;;;;;66.33;51.33;;;;;1.80;100.00;99927.88;6313004;20;2892063;-48
2023/12/08 04:15:10;;;;;;;;;67.00;54.00;;;;;1.65;100.00;99923.78;6313341;20;2875306;-52
2023/12/08 04:17:39;;;;;;;;;68.50;52.00;;;;;1.94;100.00;99925.78;6313513;20;2878525;-50
2023/12/08 04:20:09;;;;;;;;;66.50;51.50;;;;;1.67;100.00;99929.91;6280625;20;2867364;-49
2023/12/08 04:22:38;;;;;;;;;77.33;56.00;;;;;1.72;100.00;99928.03;6281044;20;2886739;-49
2023/12/08 04:25:08;;;;;;;;;68.67;51.67;;;;;2.04;100.00;99934.38;6314601;20;2878439;-48
2023/12/08 04:27:37;;;;;;;;;60.50;51.00;;;;;2.03;100.00;99924.69;6309538;20;2851842;-49
2023/12/08 04:30:07;;;;;;;;;64.00;49.00;;;;;1.51;100.00;99919.63;6281432;20;2804453;-50
2023/12/08 04:32:36;;;;;;;;;67.50;52.00;;;;;1.59;100.00;99926.56;6278927;20;2869080;-49
2023/12/08 04:35:07;;;;;;;;;67.00;51.33;;;;;1.85;100.00;99923.34;6282402;20;2875443;-47
2023/12/08 04:37:36;;;;;;;;;76.67;55.67;;;;;1.56;100.00;99911.63;6312178;20;3642954;-52
2023/12/08 04:40:07;;;;;;;;;70.33;51.67;;;;;1.49;100.00;99915.28;6312021;20;3627434;-50
2023/12/08 04:42:37;;;;;;;;;67.33;52.67;;;;;1.50;100.00;99911.72;6312982;20;3629431;-47
2023/12/08 04:45:09;;;;;;;;;70.00;56.67;;;;;1.27;100.00;99909.56;6314125;20;2877394;-49
2023/12/08 04:47:39;;;;;;;;;69.50;53.50;;;;;1.12;100.00;99910.75;6312202;20;2868711;-50
2023/12/08 04:50:09;;;;;;;;;64.00;53.00;;;;;1.66;100.00;99899.03;6279654;20;2866385;-46
2023/12/08 04:52:38;;;;;;;;;74.00;53.00;;;;;2.01;100.00;99911.50;6282495;20;2886773;-49
2023/12/08 04:55:08;;;;;;;;;66.50;53.50;;;;;2.02;100.00;99905.28;6311925;20;2859710;-50
2023/12/08 04:57:37;;;;;;;;;64.00;50.00;;;;;1.64;100.00;99903.50;6279249;20;2861148;-48
2023/12/08 05:00:08;;;;;;;;;75.00;56.00;;;;;1.36;100.00;99901.44;6281310;20;3632656;-48
2023/12/08 05:02:38;;;;;;;;;70.00;51.33;;;;;1.40;100.00;99904.91;6312396;20;2867993;-47
2023/12/08 05:05:08;;;;;;;;;68.00;54.00;;;;;1.05;100.00;99910.00;6313222;20;3615885;-49
2023/12/08 05:07:37;;;;;;;;;67.67;50.33;;;;;0.92;100.00;99912.88;6310115;20;2876424;-47
2023/12/08 05:10:07;;;;;;;;;61.00;50.50;;;;;0.96;100.00;99910.16;6311827;20;2868172;-50
2023/12/08 05:12:36;;;;;;;;;70.50;52.00;;;;;0.86;100.00;99905.94;6280543;20;2873199;-51
2023/12/08 05:15:06;;;;;;;;;74.67;55.33;;;;;0.97;100.00;99908.38;6285066;20;3649219;-49
2023/12/08 05:17:35;;;;;;;;;70.00;54.50;;;;;0.85;100.00;99906.84;6279661;20;2871120;-50
2023/12/08 05:20:06;;;;;;;;;76.67;57.00;;;;;1.08;100.00;99901.13;6276976;20;3641935;-50
2023/12/08 05:22:36;;;;;;;;;89.33;65.67;;;;;1.07;100.00;99897.59;6311382;20;3659640;-49
2023/12/08 05:25:05;;;;;;;;;70.00;55.00;;;;;0.81;100.00;99897.22;6312987;20;2858704;-49
2023/12/08 05:27:35;;;;;;;;;65.00;52.00;;;;;0.96;100.00;99888.16;6279551;20;2856598;-50
2023/12/08 05:30:03;;;;;;;;;55.50;46.50;;;;;0.77;100.00;99892.91;6276612;20;2500353;-52
2023/12/08 05:32:34;;;;;;;;;176.75;142.75;;;;;1.01;100.00;99897.72;6277151;20;3704532;-48
2023/12/08 05:35:05;;;;;;;;;183.75;138.75;;;;;1.20;100.00;99892.06;6278428;20;4472240;-50
2023/12/08 05:37:34;;;;;;;;;84.50;62.50;;;;;1.15;100.00;99889.53;6279208;20;2875243;-49
2023/12/08 05:40:05;;;;;;;;;71.33;57.00;;;;;1.42;100.00;99893.41;6279691;20;2879505;-49
2023/12/08 05:42:34;;;;;;;;;53.00;44.50;;;;;1.33;100.00;99893.56;6313036;20;2857655;-47
2023/12/08 05:45:02;;;;;;;;;61.00;49.00;;;;;1.51;100.00;99901.13;6278844;20;2509078;-48
2023/12/08 05:47:31;;;;;;;;;63.50;47.50;;;;;1.36;100.00;99901.44;6280176;20;2851398;-51
2023/12/08 05:50:02;;;;;;;;;73.00;55.33;;;;;1.54;100.00;99898.41;6278931;20;2881538;-47
2023/12/08 05:52:32;;;;;;;;;91.00;66.67;;;;;1.90;100.00;99900.28;6309230;20;3629467;-51
2023/12/08 05:55:02;;;;;;;;;93.00;68.00;;;;;1.72;100.00;99909.50;6309563;20;3639895;-54
2023/12/08 05:57:32;;;;;;;;;74.67;52.33;;;;;1.18;100.00;99912.38;6311195;20;2883875;-51
2023/12/08 06:00:01;;;;;;;;;62.00;48.50;;;;;1.43;100.00;99911.00;6309253;20;2864891;-49
2023/12/08 06:02:30;;;;;;;;;65.50;51.50;;;;;1.54;100.00;99916.94;6280729;20;2865948;-53
2023/12/08 06:04:59;;;;;;;;;69.00;52.50;;;;;1.28;100.00;99911.31;6279684;20;2883579;-50
2023/12/08 06:07:28;;;;;;;;;63.50;48.50;;;;;1.43;100.00;99918.94;6280232;20;2871245;-48
2023/12/08 06:09:56;;;;;;;;;53.50;47.00;;;;;1.47;100.00;99911.78;6276902;20;2499236;-52
2023/12/08 06:12:24;;;;;;;;;64.00;49.00;;;;;1.96;100.00;99916.91;6278282;20;2470069;-48
2023/12/08 06:14:54;;;;;;;;;57.00;45.00;;;;;2.01;100.00;99914.16;6279051;20;2872303;-49
2023/12/08 06:17:23;;;;;;;;;60.50;47.00;;;;;2.01;100.00;99915.94;6280805;20;2852391;-48
2023/12/08 06:19:52;;;;;;;;;64.50;51.00;;;;;1.36;100.00;99909.38;6276345;20;2500300;-52
2023/12/08 06:22:21;;;;;;;;;64.50;44.50;;;;;2.01;100.00;99913.28;6278347;20;2884711;-50
2023/12/08 06:24:50;;;;;;;;;67.33;48.33;;;;;2.12;100.00;99901.50;6278167;20;3637746;-51
2023/12/08 06:27:19;;;;;;;;;57.50;47.00;;;;;1.71;100.00;99905.09;6308623;20;2855503;-49
2023/12/08 06:29:50;;;;;;;;;47.50;40.50;;;;;1.31;100.00;99909.47;6278751;20;2850244;-50
2023/12/08 06:32:19;;;;;;;;;65.00;52.50;;;;;1.89;100.00;99914.41;6280897;20;2866906;-47
2023/12/08 06:34:48;;;;;;;;;71.33;53.33;;;;;2.11;100.00;99922.75;6277722;20;2866950;-47
2023/12/08 06:37:18;;;;;;;;;70.33;53.00;;;;;2.18;100.00;99929.63;6312143;20;2874366;-49
2023/12/08 06:39:48;;;;;;;;;76.33;59.33;;;;;1.88;100.00;99931.22;6310160;20;2881832;-48
2023/12/08 06:42:18;;;;;;;;;73.00;58.67;;;;;1.91;100.00;99926.72;6312807;20;2870120;-48
2023/12/08 06:44:47;;;;;;;;;77.67;58.67;;;;;2.15;100.00;99924.41;6309600;20;2888844;-48
2023/12/08 06:47:17;;;;;;;;;76.00;55.67;;;;;2.18;100.00;99926.97;6306578;20;3641970;-47
2023/12/08 06:49:45;;;;;;;;;67.50;51.00;;;;;2.15;100.00;99927.91;6304722;20;2499240;-52
2023/12/08 06:52:14;;;;;;;;;66.00;49.00;;;;;1.88;100.00;99932.09;6282854;20;2865919;-48
2023/12/08 06:54:44;;;;;;;;;75.33;56.67;;;;;2.16;100.00;99923.53;6284180;20;2887956;-50
2023/12/08 06:57:14;;;;;;;;;71.00;54.33;;;;;2.12;100.00;99921.84;6315992;20;2872195;-48
2023/12/08 06:59:44;;;;;;;;;67.00;52.33;;;;;2.08;100.00;99929.00;6315638;20;2883651;-48
2023/12/08 07:02:13;;;;;;;;;62.00;50.50;;;;;2.07;100.00;99929.03;6316598;20;2854481;-48
2023/12/08 07:04:42;;;;;;;;;70.67;54.00;;;;;1.93;100.00;99922.25;6285054;20;2870111;-53
2023/12/08 07:07:15;;;;;;;;;68.00;53.67;;;;;1.72;100.00;99928.91;6314840;20;2885778;-52
2023/12/08 07:09:45;;;;;;;;;69.00;53.33;;;;;2.14;100.00;99941.22;6315157;20;3610739;-50
2023/12/08 07:12:14;;;;;;;;;76.67;58.00;;;;;1.96;100.00;99942.50;6316625;20;2884818;-51
2023/12/08 07:14:44;;;;;;;;;65.00;52.50;;;;;1.94;100.00;99934.59;6312614;20;2863820;-48
2023/12/08 07:17:12;;;;;;;;;72.50;54.00;;;;;1.98;100.00;99941.56;6282155;20;2499365;-51
2023/12/08 07:19:41;;;;;;;;;70.33;53.67;;;;;2.25;100.00;99939.19;6282750;20;3646074;-46
2023/12/08 07:22:11;;;;;;;;;84.67;60.33;;;;;2.12;100.00;99937.72;6313894;20;3659635;-47
2023/12/08 07:24:41;;;;;;;;;81.00;58.00;;;;;2.06;100.00;99936.09;6279821;20;3655465;-48
2023/12/08 07:27:10;;;;;;;;;62.00;51.50;;;;;2.23;100.00;99934.81;6315711;20;2859037;-48
2023/12/08 07:29:39;;;;;;;;;70.33;51.33;;;;;2.40;100.00;99936.19;6281441;20;2880460;-49
2023/12/08 07:32:10;;;;;;;;;62.67;47.67;;;;;2.42;100.00;99931.72;6315312;20;2861734;-47
2023/12/08 07:34:39;;;;;;;;;73.33;51.67;;;;;2.36;100.00;99937.16;6314246;20;2885638;-49
2023/12/08 07:37:08;;;;;;;;;64.00;49.50;;;;;2.41;100.00;99940.56;6314379;20;2876682;-49
2023/12/08 07:39:38;;;;;;;;;67.00;52.00;;;;;2.65;100.00;99943.50;6282475;20;2870066;-47
2023/12/08 07:42:07;;;;;;;;;60.50;49.50;;;;;2.34;100.00;99940.72;6283657;20;2861743;-49
2023/12/08 07:44:36;;;;;;;;;68.50;52.50;;;;;2.61;100.00;99940.06;6282804;20;2870480;-49
2023/12/08 07:47:05;;;;;;;;;69.50;51.50;;;;;2.54;100.00;99934.97;6283671;20;2872219;-50
2023/12/08 07:49:34;;;;;;;;;66.00;52.50;;;;;2.36;100.00;99950.38;6281112;20;2869026;-49
2023/12/08 07:52:03;;;;;;;;;65.00;50.00;;;;;2.55;100.00;99948.16;6281746;20;2811771;-50
2023/12/08 07:54:33;;;;;;;;;74.67;52.67;;;;;2.66;100.00;99947.94;6284895;20;2882718;-48
2023/12/08 07:57:03;;;;;;;;;66.33;51.33;;;;;2.56;100.00;99955.22;6314114;20;2872140;-47
2023/12/08 07:59:33;;;;;;;;;77.00;56.33;;;;;2.47;100.00;99958.06;6310469;20;3633621;-47
2023/12/08 08:02:03;;;;;;;;;88.00;64.33;;;;;2.74;100.00;99963.59;6314872;20;3645094;-48
2023/12/08 08:04:34;;;;;;;;;105.00;82.75;;;;;2.70;100.00;99967.25;6314613;20;3696152;-49
2023/12/08 08:07:04;;;;;;;;;81.00;63.67;;;;;2.53;100.00;99975.63;6316483;20;3630486;-47
2023/12/08 08:09:33;;;;;;;;;88.33;68.00;;;;;2.57;100.00;99972.00;6312780;20;3630611;-49
2023/12/08 08:12:04;;;;;;;;;85.67;64.67;;;;;2.27;100.00;99971.81;6313687;20;3625292;-48
2023/12/08 08:14:34;;;;;;;;;81.33;63.33;;;;;2.61;100.00;99968.38;6313004;20;3639868;-51
2023/12/08 08:17:04;;;;;;;;;87.67;66.00;;;;;2.19;100.00;99960.53;6312048;20;3661872;-52
2023/12/08 08:19:33;;;;;;;;;80.00;60.50;;;;;2.22;100.00;99949.84;6308991;20;2872178;-48
2023/12/08 08:22:02;;;;;;;;;68.00;56.00;;;;;1.44;100.00;99954.19;6283853;20;2873831;-50
2023/12/08 08:24:51;;;;;;;;;75.00;57.33;;;;;1.48;100.00;99940.88;6284331;20;3640855;-52
2023/12/08 08:27:21;;;;;;;;;79.67;60.00;;;;;1.66;100.00;99938.72;6313389;20;3624309;-48
2023/12/08 08:29:51;;;;;;;;;81.33;62.00;;;;;1.98;100.00;99940.69;6310746;20;3629494;-48
2023/12/08 08:32:22;;;;;;;;;79.67;62.33;;;;;1.94;100.00;99931.06;6314595;20;3629484;-48
2023/12/08 08:34:52;;;;;;;;;76.00;60.00;;;;;1.94;100.00;99937.22;6314908;20;2871152;-48
2023/12/08 08:37:26;;;;;;;;;75.00;59.50;;;;;2.08;100.00;99938.69;6313294;20;2870151;-49
2023/12/08 08:39:56;;;;;;;;;72.33;56.67;;;;;2.57;100.00;99946.34;6282453;20;2883726;-48
2023/12/08 08:42:26;;;;;;;;;72.67;56.67;;;;;2.99;100.00;99943.50;6311916;20;3645298;-49
2023/12/08 08:44:56;;;;;;;;;80.33;58.33;;;;;2.94;100.00;99949.84;6313786;20;3645046;-49
2023/12/08 08:47:25;;;;;;;;;65.50;54.50;;;;;3.37;100.00;99946.94;6314454;20;2866207;-49
2023/12/08 08:49:55;;;;;;;;;80.33;60.00;;;;;3.50;100.00;99942.09;6282650;20;3640910;-48
2023/12/08 08:52:25;;;;;;;;;75.67;55.67;;;;;3.54;100.00;99940.25;6315844;20;3645174;-50
2023/12/08 08:54:55;;;;;;;;;71.33;56.67;;;;;2.58;100.00;99947.22;6304890;20;2878646;-51
2023/12/08 08:57:24;;;;;;;;;69.67;52.33;;;;;2.22;100.00;99949.00;6316463;20;2881685;-48
2023/12/08 08:59:53;;;;;;;;;68.00;54.50;;;;;3.34;100.00;99943.47;6311214;20;2856552;-48
2023/12/08 09:02:23;;;;;;;;;68.00;55.33;;;;;2.86;100.00;99942.97;6282484;20;2880573;-48
2023/12/08 09:04:53;;;;;;;;;71.00;52.33;;;;;2.12;100.00;99943.88;6313104;20;3641015;-48
2023/12/08 09:07:23;;;;;;;;;70.67;52.00;;;;;2.36;100.00;99937.16;6315435;20;2878415;-48
2023/12/08 09:09:53;;;;;;;;;69.00;54.00;;;;;2.50;100.00;99943.88;6311561;20;2870051;-50
2023/12/08 09:12:23;;;;;;;;;71.67;51.67;;;;;3.06;100.00;99941.59;6315807;20;3638838;-48
2023/12/08 09:14:53;;;;;;;;;66.00;51.00;;;;;3.32;100.00;99932.00;6312462;20;2871167;-49
2023/12/08 09:17:21;;;;;;;;;72.00;52.50;;;;;3.40;100.00;99930.91;6282796;20;2871136;-51
2023/12/08 09:19:51;;;;;;;;;62.67;48.67;;;;;3.13;100.00;99936.97;6280737;20;3618368;-49
2023/12/08 09:22:21;;;;;;;;;65.50;51.00;;;;;2.24;100.00;99932.16;6311286;20;2874374;-48
2023/12/08 09:24:50;;;;;;;;;64.50;52.50;;;;;2.52;100.00;99931.47;6308072;20;2871239;-49
2023/12/08 09:27:19;;;;;;;;;68.00;54.00;;;;;2.78;100.00;99938.78;6280917;20;2859690;-51
2023/12/08 09:29:48;;;;;;;;;64.00;51.00;;;;;3.37;100.00;99931.00;6279615;20;2869138;-48
2023/12/08 09:32:19;;;;;;;;;66.33;51.33;;;;;2.73;100.00;99930.94;6281646;20;2875294;-48
2023/12/08 09:34:48;;;;;;;;;60.50;47.50;;;;;2.47;100.00;99923.63;6312043;20;2852393;-51
2023/12/08 09:37:17;;;;;;;;;68.50;54.00;;;;;2.43;100.00;99921.97;6282235;20;2867059;-48
2023/12/08 09:40:08;;;;;;;;;72.33;53.33;;;;;2.71;100.00;99914.19;6280004;20;3632585;-51
2023/12/08 09:42:56;;;;;;;;;77.00;61.00;;;;;2.51;100.00;99919.16;6313718;20;2875368;-51
2023/12/08 09:45:25;;;;;;;;;65.00;52.00;;;;;2.36;100.00;99905.34;6310887;20;2888852;-52
2023/12/08 09:47:55;;;;;;;;;67.33;50.67;;;;;2.75;100.00;99899.94;6283111;20;2874259;-51
2023/12/08 09:50:27;;;;;;;;;70.67;53.67;;;;;2.59;100.00;99893.31;6310157;20;2885825;-49
2023/12/08 09:52:56;;;;;;;;;67.00;52.50;;;;;2.75;100.00;99884.03;6314514;20;2868010;-49
2023/12/08 09:55:29;;;;;;;;;71.00;54.67;;;;;2.65;100.00;99869.28;6280434;20;2876544;-49
2023/12/08 09:58:01;;;;;;;;;73.33;56.67;;;;;2.74;100.00;99858.47;6309638;20;2874324;-50
2023/12/08 10:00:35;;;;;;;;;74.00;55.67;;;;;2.96;100.00;99855.22;6308777;20;2896239;-50
2023/12/08 10:03:05;;;;;;;;;78.00;59.00;;;;;3.60;100.00;99871.91;6312741;20;3634659;-51
2023/12/08 10:05:35;;;;;;;;;75.33;59.00;;;;;3.76;100.00;99898.00;6313460;20;2882672;-51
2023/12/08 10:08:04;;;;;;;;;74.50;58.50;;;;;3.54;100.00;99914.56;6311170;20;2867460;-50
2023/12/08 10:10:34;;;;;;;;;82.00;59.33;;;;;3.11;100.00;99914.91;6278411;20;3651313;-53
2023/12/08 10:13:03;;;;;;;;;59.00;43.00;;;;;3.07;100.00;99903.53;6275383;20;2877386;-52
2023/12/08 10:15:33;;;;;;;;;77.00;60.33;;;;;3.29;100.00;99899.38;6312598;20;2877557;-48
2023/12/08 10:18:03;;;;;;;;;78.67;59.67;;;;;3.34;100.00;99912.47;6313052;20;2887789;-49
2023/12/08 10:20:33;;;;;;;;;83.00;61.33;;;;;3.26;100.00;99920.66;6309172;20;3653406;-53
2023/12/08 10:23:02;;;;;;;;;89.00;67.00;;;;;3.08;100.00;99903.50;6313942;20;3654401;-53
2023/12/08 10:25:32;;;;;;;;;78.33;62.00;;;;;3.33;100.00;99901.94;6313211;20;3633665;-54
2023/12/08 10:28:02;;;;;;;;;94.67;70.00;;;;;3.41;100.00;99906.09;6318467;20;3661801;-53
2023/12/08 10:30:32;;;;;;;;;90.00;64.33;;;;;3.19;100.00;99897.88;6284158;20;3649281;-52
2023/12/08 10:33:01;;;;;;;;;72.50;58.50;;;;;3.21;100.00;99895.16;6318937;20;2863301;-49
2023/12/08 10:35:31;;;;;;;;;81.33;64.00;;;;;3.21;100.00;99895.16;6286484;20;2869034;-52
2023/12/08 10:38:03;;;;;;;;;80.67;60.33;;;;;3.31;100.00;99891.34;6316730;20;3639934;-53
2023/12/08 10:40:32;;;;;;;;;87.67;65.67;;;;;2.96;100.00;99901.16;6315932;20;3660661;-49
2023/12/08 10:43:05;;;;;;;;;84.67;65.33;;;;;3.01;100.00;99898.41;6285263;20;2881578;-52
2023/12/08 10:45:35;;;;;;;;;83.67;64.33;;;;;3.04;100.00;99896.50;6317304;20;3634625;-53
2023/12/08 10:48:05;;;;;;;;;81.00;61.00;;;;;3.07;100.00;99887.59;6316963;20;3655576;-53
2023/12/08 10:50:37;;;;;;;;;81.00;64.00;;;;;3.21;100.00;99880.16;6314133;20;3631629;-49
2023/12/08 10:53:07;;;;;;;;;75.00;60.00;;;;;3.11;100.00;99893.69;6315981;20;3629518;-50
2023/12/08 10:55:38;;;;;;;;;81.67;62.00;;;;;3.05;100.00;99892.06;6315625;20;2898350;-51
2023/12/08 10:58:15;;;;;;;;;89.67;67.67;;;;;3.20;100.00;99880.19;6313858;20;3656532;-48
2023/12/08 11:00:45;;;;;;;;;106.50;87.50;;;;;3.25;100.00;99881.78;6316766;20;4464858;-49
2023/12/08 11:03:19;;;;;;;;;86.33;65.00;;;;;3.14;100.00;99883.88;6279813;20;3652459;-50
2023/12/08 11:06:12;;;;;;;;;77.67;53.67;;;;;3.28;100.00;99886.13;6315416;20;3649210;-50
2023/12/08 11:08:46;;;;;;;;;81.33;62.67;;;;;3.26;100.00;99883.50;6318756;20;3627544;-48
2023/12/08 11:11:17;;;;;;;;;91.00;64.00;;;;;3.21;100.00;99877.50;6311213;20;2780516;-49
2023/12/08 11:13:51;;;;;;;;;87.67;63.67;;;;;3.16;100.00;99881.16;6282640;20;3652398;-52